Terminal Aerodrome Forecast
Issued by NWS Knoxville/Tri Cities, TN

Home | Current Version | Previous Version | Text Only | Print | Product List | Glossary On
Versions: 1 2 3 4 5 6 7 8 9 10 11 12 13 14 15 16 17 18 19 20 21 22 23 24 25 26 27 28 29 30 31 32 33 34 35 36 37 38 39 40
000
FTUS44 KMRX 232329
TAFCHA
TAF
KCHA 232329Z 2400/2424 24010G18KT P6SM FEW015 SCT025 BKN045
      TEMPO 2400/2402 P6SM -DZ BKN015
     FM240200 22004KT P6SM SCT080
     FM240900 20002KT P6SM OVC100
     FM241400 27012KT P6SM SCT050
     FM241800 27015G22KT P6SM SCT250
     FM242300 28009KT P6SM BKN100=

USA.gov is the U.S. government's official web portal to all federal, state and local government web resources and services.